createdAt,value
2023-01-19T00:01:23.031Z,13.38
2023-01-19T00:06:25.256Z,13.50
2023-01-19T00:11:27.099Z,13.13
2023-01-19T00:16:29.022Z,11.43
2023-01-19T00:21:30.867Z,12.70
2023-01-19T00:26:32.674Z,12.32
2023-01-19T00:31:34.610Z,12.95
2023-01-19T00:36:36.504Z,9.73
2023-01-19T00:41:38.345Z,11.68
2023-01-19T00:46:40.283Z,11.45
2023-01-19T00:51:42.254Z,11.55
2023-01-19T00:56:44.139Z,11.40
2023-01-19T01:01:46.617Z,11.13
2023-01-19T01:06:48.610Z,10.90
2023-01-19T01:11:50.419Z,9.65
2023-01-19T01:16:52.745Z,8.80
2023-01-19T01:21:54.680Z,8.88
2023-01-19T01:26:56.499Z,6.68
2023-01-19T01:31:58.360Z,7.18
2023-01-19T01:37:00.185Z,8.48
2023-01-19T01:42:02.217Z,8.55
2023-01-19T01:47:04.284Z,9.13
2023-01-19T01:52:06.162Z,9.20
2023-01-19T01:57:08.294Z,9.65
2023-01-19T02:02:16.067Z,10.20
2023-01-19T02:07:21.860Z,12.07
2023-01-19T02:12:23.704Z,11.93
2023-01-19T02:17:25.940Z,12.75
2023-01-19T02:22:33.415Z,12.02
2023-01-19T02:27:35.220Z,12.85
2023-01-19T02:32:37.192Z,13.27
2023-01-19T02:37:43.384Z,13.10
2023-01-19T02:42:53.054Z,13.98
2023-01-19T02:47:54.866Z,14.32
2023-01-19T02:53:01.494Z,14.95
2023-01-19T02:58:15.453Z,13.98
2023-01-19T03:03:26.493Z,15.18
2023-01-19T03:08:31.470Z,13.73
2023-01-19T03:13:33.300Z,13.52
2023-01-19T03:18:35.569Z,14.77
2023-01-19T03:23:38.509Z,13.80
2023-01-19T03:28:42.144Z,13.68
2023-01-19T03:33:47.127Z,13.30
2023-01-19T03:38:49.892Z,13.73
2023-01-19T03:43:53.334Z,13.77
2023-01-19T03:48:55.193Z,14.05
2023-01-19T03:53:57.054Z,16.65
2023-01-19T03:58:58.861Z,15.25
2023-01-19T04:04:00.666Z,16.88
2023-01-19T04:09:02.950Z,15.97
2023-01-19T04:14:04.757Z,15.38
2023-01-19T04:19:06.620Z,16.70
2023-01-19T04:24:09.636Z,16.45
2023-01-19T04:29:11.509Z,14.98
2023-01-19T04:34:13.343Z,15.02
2023-01-19T04:39:15.285Z,13.18
2023-01-19T04:44:17.292Z,14.38
2023-01-19T04:49:19.195Z,12.80
2023-01-19T04:54:21.365Z,12.35
2023-01-19T04:59:23.254Z,11.80
2023-01-19T05:04:25.120Z,11.68
2023-01-19T05:09:26.940Z,11.82
2023-01-19T05:14:28.786Z,11.80
2023-01-19T05:19:30.603Z,11.23
2023-01-19T05:24:32.455Z,11.48
2023-01-19T05:29:34.271Z,12.48
2023-01-19T05:34:36.095Z,12.23
2023-01-19T05:39:38.075Z,10.82
2023-01-19T05:44:39.924Z,10.38
2023-01-19T05:49:41.754Z,10.35
2023-01-19T05:54:43.595Z,9.15
2023-01-19T05:59:45.423Z,9.02
2023-01-19T06:04:47.239Z,8.55
2023-01-19T06:09:49.163Z,8.10
2023-01-19T06:14:50.980Z,7.60
2023-01-19T06:19:52.835Z,7.20
2023-01-19T06:24:54.705Z,6.78
2023-01-19T06:29:56.540Z,6.90
2023-01-19T06:34:58.376Z,6.32
2023-01-19T06:40:00.176Z,6.00
2023-01-19T06:45:01.999Z,5.95
2023-01-19T06:50:03.940Z,4.53
2023-01-19T06:55:06.126Z,4.57
2023-01-19T07:00:08.413Z,4.72
2023-01-19T07:05:11.213Z,4.63
2023-01-19T07:10:13.054Z,4.10
2023-01-19T07:15:16.163Z,3.17
2023-01-19T07:20:18.115Z,2.85
2023-01-19T07:25:19.977Z,2.25
2023-01-19T07:30:21.837Z,2.25
2023-01-19T07:35:24.247Z,1.80
2023-01-19T07:40:26.078Z,1.83
2023-01-19T07:45:28.091Z,1.70
2023-01-19T07:50:29.903Z,1.83
2023-01-19T07:55:31.802Z,1.27
2023-01-19T08:00:37.171Z,1.80
2023-01-19T08:05:38.975Z,1.38
2023-01-19T08:10:40.806Z,1.48
2023-01-19T08:15:42.644Z,1.63
2023-01-19T08:20:44.555Z,1.30
2023-01-19T08:25:46.682Z,1.40
2023-01-19T08:30:49.015Z,1.42
2023-01-19T08:35:52.134Z,1.80
2023-01-19T08:40:53.968Z,1.60
2023-01-19T08:45:55.838Z,1.75
2023-01-19T08:50:57.897Z,1.25
2023-01-19T08:55:59.885Z,1.95
2023-01-19T09:01:03.201Z,0.70
2023-01-19T09:06:06.738Z,1.42
2023-01-19T09:11:12.186Z,0.75
2023-01-19T09:16:14.246Z,1.33
2023-01-19T09:21:16.091Z,1.33
2023-01-19T09:26:17.912Z,1.60
2023-01-19T09:31:19.892Z,0.80
2023-01-19T09:36:21.849Z,1.10
2023-01-19T09:41:23.785Z,1.38
2023-01-19T09:46:39.423Z,1.35
2023-01-19T09:51:43.778Z,1.15
2023-01-19T09:56:47.000Z,1.42
2023-01-19T10:02:06.811Z,1.58
2023-01-19T10:07:08.639Z,2.03
2023-01-19T10:12:40.008Z,1.10
2023-01-19T10:17:55.440Z,1.55
2023-01-19T10:22:58.311Z,1.38
2023-01-19T10:28:00.708Z,1.33
2023-01-19T10:33:02.846Z,1.53
2023-01-19T10:38:05.230Z,2.03
2023-01-19T10:43:25.943Z,1.58
2023-01-19T10:48:36.227Z,2.58
2023-01-19T10:53:38.306Z,1.10
2023-01-19T10:58:40.338Z,1.33
2023-01-19T11:03:42.294Z,1.23
2023-01-19T11:08:44.933Z,1.20
2023-01-19T11:14:02.049Z,1.38
2023-01-19T11:19:04.245Z,1.55
2023-01-19T11:24:10.321Z,1.77
2023-01-19T11:29:22.292Z,1.27
2023-01-19T11:34:32.014Z,0.95
2023-01-19T11:39:45.559Z,1.20
2023-01-19T11:44:50.085Z,1.38
2023-01-19T12:00:35.723Z,1.00
2023-01-19T12:05:39.292Z,1.02
2023-01-19T12:10:43.482Z,1.25
2023-01-19T12:15:46.523Z,1.23
2023-01-19T12:20:53.033Z,1.60
2023-01-19T12:26:08.134Z,0.88
2023-01-19T12:31:10.262Z,1.23
2023-01-19T12:36:32.168Z,1.73
2023-01-19T12:41:33.962Z,1.10
2023-01-19T12:46:36.504Z,1.10
2023-01-19T13:06:49.118Z,0.82
2023-01-19T13:12:20.250Z,0.55
2023-01-19T13:17:22.239Z,0.85
2023-01-19T13:22:42.535Z,0.90
2023-01-19T13:27:44.532Z,1.13
2023-01-19T13:32:46.761Z,0.80
2023-01-19T13:37:48.893Z,1.15
2023-01-19T13:42:52.861Z,0.70
2023-01-19T13:47:55.348Z,0.80
2023-01-19T13:52:57.821Z,0.90
2023-01-19T13:57:59.938Z,0.90
2023-01-19T14:03:04.989Z,1.20
2023-01-19T14:08:10.199Z,0.90
2023-01-19T14:13:22.404Z,0.73
2023-01-19T14:18:24.383Z,1.00
2023-01-19T14:23:35.546Z,0.63
2023-01-19T14:28:43.857Z,0.60
2023-01-19T14:33:46.447Z,2.17
2023-01-19T14:38:49.689Z,1.05
2023-01-19T14:48:55.646Z,0.75
2023-01-19T14:53:59.690Z,0.80
2023-01-19T14:59:02.241Z,0.77
2023-01-19T15:04:04.105Z,0.70
2023-01-19T15:09:06.125Z,0.82
2023-01-19T15:14:11.693Z,0.70
2023-01-19T15:19:15.048Z,1.00
2023-01-19T15:24:17.980Z,0.80
2023-01-19T15:29:24.459Z,0.80
2023-01-19T15:34:26.541Z,0.70
2023-01-19T15:39:28.399Z,0.70
2023-01-19T15:44:30.260Z,0.60
2023-01-19T15:49:32.122Z,0.90
2023-01-19T15:54:34.248Z,1.00
2023-01-19T15:59:36.215Z,1.10
2023-01-19T16:04:41.546Z,0.80
2023-01-19T16:09:43.395Z,2.17
2023-01-19T16:14:45.372Z,1.58
2023-01-19T16:19:47.524Z,1.00
2023-01-19T16:24:49.496Z,4.15
2023-01-19T16:29:51.741Z,1.27
2023-01-19T16:34:53.629Z,1.07
2023-01-19T16:39:55.521Z,0.95
2023-01-19T16:44:57.632Z,0.98
2023-01-19T16:49:59.653Z,1.05
2023-01-19T16:55:01.573Z,1.20
2023-01-19T17:00:03.962Z,0.93
2023-01-19T17:05:06.287Z,0.90
2023-01-19T17:10:08.455Z,0.70
2023-01-19T17:15:10.869Z,0.90
2023-01-19T17:20:13.151Z,0.90
2023-01-19T17:25:15.607Z,1.27
2023-01-19T17:30:17.504Z,1.20
2023-01-19T17:35:19.707Z,1.25
2023-01-19T17:40:21.722Z,1.02
2023-01-19T17:45:23.852Z,1.40
2023-01-19T17:50:25.867Z,1.38
2023-01-19T17:55:27.857Z,1.60
2023-01-19T18:00:29.824Z,1.10
2023-01-19T18:05:32.007Z,3.08
2023-01-19T18:10:34.028Z,1.30
2023-01-19T18:15:35.846Z,1.63
2023-01-19T18:20:37.905Z,1.52
2023-01-19T18:25:39.968Z,1.33
2023-01-19T18:30:42.012Z,1.60
2023-01-19T18:35:44.666Z,1.60
2023-01-19T18:40:46.600Z,1.50
2023-01-19T18:45:48.607Z,1.60
2023-01-19T18:50:51.180Z,1.45
2023-01-19T18:55:54.121Z,1.50
2023-01-19T19:00:56.648Z,3.03
2023-01-19T19:06:02.288Z,1.38
2023-01-19T19:11:07.232Z,1.80
2023-01-19T19:16:10.040Z,1.58
2023-01-19T19:21:12.229Z,1.70
2023-01-19T19:26:14.207Z,1.50
2023-01-19T19:31:17.731Z,1.48
2023-01-19T19:36:20.404Z,2.08
2023-01-19T19:41:23.800Z,2.97
2023-01-19T19:46:26.465Z,3.13
2023-01-19T19:51:28.520Z,2.40
2023-01-19T19:56:31.361Z,3.28
2023-01-19T20:01:34.084Z,4.18
2023-01-19T20:06:36.645Z,3.15
2023-01-19T20:11:38.495Z,2.60
2023-01-19T20:16:40.494Z,3.10
2023-01-19T20:21:42.835Z,3.40
2023-01-19T20:26:46.829Z,3.27
2023-01-19T20:31:50.446Z,3.17
2023-01-19T20:36:52.347Z,3.08
2023-01-19T20:41:54.322Z,2.92
2023-01-19T20:46:56.405Z,3.63
2023-01-19T20:51:58.551Z,2.80
2023-01-19T20:57:00.379Z,2.78
2023-01-19T21:02:02.351Z,2.55
2023-01-19T21:07:04.485Z,2.80
2023-01-19T21:12:06.521Z,3.17
2023-01-19T21:17:08.409Z,3.05
2023-01-19T21:22:10.304Z,3.00
2023-01-19T21:27:12.602Z,2.67
2023-01-19T21:32:14.794Z,2.70
2023-01-19T21:37:16.713Z,2.83
2023-01-19T21:42:18.652Z,3.15
2023-01-19T21:47:20.738Z,3.60
2023-01-19T21:52:22.543Z,3.05
2023-01-19T21:57:24.402Z,2.78
2023-01-19T22:02:37.978Z,2.72
2023-01-19T22:07:40.627Z,3.10
2023-01-19T22:12:42.540Z,3.17
2023-01-19T22:17:44.470Z,3.35
2023-01-19T22:22:46.294Z,2.88
2023-01-19T22:27:48.111Z,2.90
2023-01-19T22:32:50.002Z,3.40
2023-01-19T22:37:51.850Z,2.95
2023-01-19T22:42:53.674Z,3.47
2023-01-19T22:47:55.525Z,3.72
2023-01-19T22:52:57.325Z,4.63
2023-01-19T22:57:59.236Z,5.25
2023-01-19T23:03:01.144Z,5.25
2023-01-19T23:08:02.975Z,6.63
2023-01-19T23:13:04.819Z,5.93
2023-01-19T23:18:06.698Z,6.13
2023-01-19T23:23:08.531Z,6.90
2023-01-19T23:28:10.503Z,7.75
2023-01-19T23:33:12.299Z,7.88
2023-01-19T23:38:14.256Z,8.48
2023-01-19T23:43:16.056Z,8.40
2023-01-19T23:48:17.920Z,9.95
2023-01-19T23:53:19.730Z,9.13
2023-01-19T23:58:21.520Z,8.23
